Time;durP1;ratioP1;P1;durP2;ratioP2;P2;SDS_P1;SDS_P2;PMS_P1;PMS_P2;Temp;Humidity;BMP_temperature;BMP_pressure;BME280_temperature;BME280_humidity;BME280_pressure;Samples;Min_cycle;Max_cycle;Signal;HPM_P1;HPM_P2
2022/11/02 00:01:46;;;;;;;11.63;3.42;;;;;;;10.09;100.00;100891.16;5037935;28;20049;-70
2022/11/02 00:04:14;;;;;;;11.38;3.72;;;;;;;10.07;100.00;100884.22;5037615;28;20076;-72
2022/11/02 00:06:40;;;;;;;13.15;3.35;;;;;;;9.93;100.00;100868.81;5045410;28;20049;-75
2022/11/02 00:09:07;;;;;;;10.95;3.10;;;;;;;9.92;100.00;100861.81;5043603;28;20053;-73
2022/11/02 00:11:36;;;;;;;10.43;3.10;;;;;;;10.00;100.00;100872.97;5037966;28;20045;-72
2022/11/02 00:14:03;;;;;;;6.65;2.90;;;;;;;10.11;100.00;100891.09;5038443;28;20045;-75
2022/11/02 00:16:30;;;;;;;8.25;2.95;;;;;;;10.09;100.00;100888.50;5036777;28;20048;-74
2022/11/02 00:19:00;;;;;;;8.90;2.97;;;;;;;10.12;100.00;100880.47;5046004;28;20049;-75
2022/11/02 00:21:27;;;;;;;10.93;3.10;;;;;;;10.08;100.00;100865.59;5051386;28;20045;-69
2022/11/02 00:23:55;;;;;;;11.50;3.75;;;;;;;10.18;100.00;100888.22;5040101;28;20140;-74
2022/11/02 00:26:23;;;;;;;10.20;2.85;;;;;;;10.08;100.00;100864.75;5042723;28;20408;-74
2022/11/02 00:28:49;;;;;;;8.15;3.20;;;;;;;10.25;100.00;100887.97;5045639;28;20042;-76
2022/11/02 00:31:16;;;;;;;11.73;2.92;;;;;;;10.12;100.00;100867.22;5027997;28;20049;-70
2022/11/02 00:33:42;;;;;;;10.10;3.28;;;;;;;10.25;100.00;100882.66;5031121;28;20049;-73
2022/11/02 00:36:09;;;;;;;7.40;2.67;;;;;;;10.24;100.00;100888.88;5042459;28;20394;-73
2022/11/02 00:38:36;;;;;;;8.20;3.03;;;;;;;10.26;100.00;100884.41;5048151;28;20049;-77
2022/11/02 00:41:02;;;;;;;8.07;2.45;;;;;;;10.33;100.00;100884.13;5043442;28;20045;-75
2022/11/02 00:43:29;;;;;;;8.27;2.42;;;;;;;10.33;100.00;100876.19;5037985;28;20049;-75
2022/11/02 00:45:56;;;;;;;11.32;2.80;;;;;;;10.36;100.00;100872.56;5044854;28;20040;-75
2022/11/02 00:48:22;;;;;;;8.35;2.90;;;;;;;10.37;100.00;100871.63;5047060;28;20067;-77
2022/11/02 00:50:49;;;;;;;7.00;3.67;;;;;;;10.32;100.00;100873.59;5043497;28;20043;-73
2022/11/02 00:53:15;;;;;;;8.40;2.95;;;;;;;10.24;100.00;100868.56;5037523;28;20143;-74
2022/11/02 00:55:42;;;;;;;11.55;3.70;;;;;;;10.18;100.00;100882.03;5041858;28;20159;-76
2022/11/02 00:58:09;;;;;;;8.30;3.35;;;;;;;10.13;100.00;100876.88;5047713;28;20049;-74
2022/11/02 01:00:35;;;;;;;12.80;3.50;;;;;;;9.95;100.00;100856.41;5049747;28;20053;-74
2022/11/02 01:03:02;;;;;;;11.10;3.22;;;;;;;10.05;100.00;100870.16;5047491;28;20038;-75
2022/11/02 01:05:29;;;;;;;13.82;3.20;;;;;;;10.05;100.00;100876.31;5055935;28;20532;-76
2022/11/02 01:07:56;;;;;;;14.93;3.35;;;;;;;10.00;100.00;100872.97;5042131;28;20133;-76
2022/11/02 01:10:24;;;;;;;10.75;3.28;;;;;;;9.95;100.00;100869.63;5062956;28;20098;-74
2022/11/02 01:12:51;;;;;;;10.50;3.90;;;;;;;9.95;100.00;100884.63;5046244;28;20444;-76
2022/11/02 01:15:17;;;;;;;7.00;3.17;;;;;;;9.92;100.00;100885.59;5049278;28;20040;-76
2022/11/02 01:17:44;;;;;;;12.00;3.50;;;;;;;9.80;100.00;100862.25;5035191;28;20481;-76
2022/11/02 01:20:11;;;;;;;7.75;3.60;;;;;;;9.87;100.00;100870.84;5048306;28;20489;-77
2022/11/02 01:22:38;;;;;;;13.60;3.58;;;;;;;9.87;100.00;100878.78;5042713;28;20752;-71
2022/11/02 01:25:04;;;;;;;11.13;4.13;;;;;;;9.84;100.00;100874.47;5039989;28;20513;-76
2022/11/02 01:27:31;;;;;;;9.20;3.35;;;;;;;9.78;100.00;100864.94;5047861;28;20041;-76
2022/11/02 01:29:57;;;;;;;8.38;3.42;;;;;;;9.80;100.00;100870.19;5049290;28;20131;-76
2022/11/02 01:32:24;;;;;;;10.02;3.47;;;;;;;9.77;100.00;100870.28;5041413;28;20057;-74
2022/11/02 01:34:50;;;;;;;10.55;3.55;;;;;;;9.72;100.00;100857.25;5042651;28;20402;-72
2022/11/02 01:37:17;;;;;;;8.43;3.85;;;;;;;9.74;100.00;100855.44;5049877;28;20049;-74
2022/11/02 01:39:43;;;;;;;11.18;4.03;;;;;;;9.81;100.00;100863.97;5048616;28;20144;-75
2022/11/02 01:42:21;;;;;;;15.68;3.85;;;;;;;9.70;100.00;100843.22;5042392;28;20110;-74
2022/11/02 01:44:48;;;;;;;13.38;3.70;;;;;;;9.84;100.00;100862.09;5043826;28;20409;-73
2022/11/02 01:47:36;;;;;;;10.80;3.53;;;;;;;9.81;100.00;100858.69;5041408;28;20490;-75
2022/11/02 01:50:08;;;;;;;10.65;4.35;;;;;;;9.75;100.00;100861.59;5039848;28;20053;-72
2022/11/02 01:52:36;;;;;;;11.07;4.07;;;;;;;9.71;100.00;100865.25;5041384;28;20520;-76
2022/11/02 01:55:18;;;;;;;10.80;4.07;;;;;;;9.68;100.00;100866.22;5040562;28;20127;-75
2022/11/02 01:57:51;;;;;;;9.93;3.85;;;;;;;9.65;100.00;100860.16;5050105;28;20087;-75
2022/11/02 02:00:18;;;;;;;9.43;3.88;;;;;;;9.49;100.00;100836.91;5048527;28;20045;-74
2022/11/02 02:02:51;;;;;;;10.05;4.18;;;;;;;9.58;100.00;100850.75;5034799;28;20141;-72
2022/11/02 02:05:20;;;;;;;10.50;4.07;;;;;;;9.68;100.00;100852.13;5030539;28;20173;-74
2022/11/02 02:07:49;;;;;;;11.07;3.83;;;;;;;9.73;100.00;100852.84;5045305;28;20059;-74
2022/11/02 02:10:16;;;;;;;12.75;4.00;;;;;;;9.76;100.00;100850.06;5044835;28;20036;-73
2022/11/02 02:12:43;;;;;;;8.90;4.10;;;;;;;9.76;100.00;100839.47;5039855;28;20041;-75
2022/11/02 02:15:11;;;;;;;11.07;3.92;;;;;;;9.76;100.00;100845.63;5044102;28;20071;-72
2022/11/02 02:17:58;;;;;;;13.68;3.88;;;;;;;9.76;100.00;100842.13;5044227;28;20048;-74
2022/11/02 02:20:44;;;;;;;10.15;4.03;;;;;;;9.72;100.00;100832.59;5048742;28;20048;-76
2022/11/02 02:23:37;;;;;;;14.20;3.72;;;;;;;9.73;100.00;100842.25;5038095;28;20444;-73
2022/11/02 02:26:31;;;;;;;10.90;3.80;;;;;;;9.60;100.00;100814.53;5041607;28;20057;-76
2022/11/02 02:29:19;;;;;;;10.95;4.15;;;;;;;9.78;100.00;100827.06;5047469;28;20063;-73
2022/11/02 02:32:14;;;;;;;7.90;3.60;;;;;;;9.84;100.00;100829.50;5044430;28;20513;-74
2022/11/02 02:34:53;;;;;;;9.85;3.60;;;;;;;9.81;100.00;100813.72;5037159;28;20114;-75
2022/11/02 02:37:26;;;;;;;9.33;3.00;;;;;;;9.87;100.00;100817.94;5048028;28;20511;-75
2022/11/02 02:40:01;;;;;;;9.40;3.53;;;;;;;9.83;100.00;100817.19;5044112;28;20532;-72
2022/11/02 02:42:45;;;;;;;10.07;3.55;;;;;;;9.76;100.00;100819.19;5040500;28;20071;-73
2022/11/02 02:45:27;;;;;;;13.00;3.67;;;;;;;9.71;100.00;100815.00;5041544;28;20067;-73
2022/11/02 02:48:00;;;;;;;11.70;3.53;;;;;;;9.68;100.00;100820.41;5042833;28;20139;-74
2022/11/02 02:50:34;;;;;;;11.73;3.85;;;;;;;9.64;100.00;100811.69;5034612;28;20142;-73
2022/11/02 02:53:05;;;;;;;14.77;4.40;;;;;;;9.66;100.00;100822.22;5033857;28;20481;-71
2022/11/02 02:55:38;;;;;;;11.13;4.05;;;;;;;9.50;100.00;100806.91;5047865;28;20148;-72
2022/11/02 02:58:11;;;;;;;10.70;3.97;;;;;;;9.41;100.00;100794.03;5053664;28;20037;-72
2022/11/02 03:00:39;;;;;;;14.40;3.80;;;;;;;9.56;100.00;100812.91;5041308;28;20100;-74
2022/11/02 03:03:06;;;;;;;8.23;3.22;;;;;;;9.44;100.00;100801.00;5034912;28;20049;-72
2022/11/02 03:05:35;;;;;;;10.68;4.00;;;;;;;9.56;100.00;100819.06;5041693;28;20049;-70
2022/11/02 03:08:07;;;;;;;13.65;4.03;;;;;;;9.57;100.00;100819.94;5043656;28;20049;-70
2022/11/02 03:10:46;;;;;;;11.60;4.43;;;;;;;9.35;100.00;100791.59;5034090;28;20130;-74
2022/11/02 03:13:21;;;;;;;15.45;4.93;;;;;;;9.42;100.00;100824.84;5034221;28;20148;-73
2022/11/02 03:15:58;;;;;;;11.85;4.50;;;;;;;9.40;100.00;100828.47;5042754;28;20040;-74
2022/11/02 03:18:25;;;;;;;14.02;4.72;;;;;;;9.38;100.00;100830.28;5045032;28;20374;-75
2022/11/02 03:21:18;;;;;;;13.82;4.85;;;;;;;9.34;100.00;100826.88;5051558;28;20120;-73
2022/11/02 03:24:02;;;;;;;14.38;5.32;;;;;;;9.27;100.00;100822.75;5041008;28;20141;-74
2022/11/02 03:26:39;;;;;;;13.80;5.10;;;;;;;9.13;100.00;100801.19;5039462;28;20122;-74
2022/11/02 03:29:09;;;;;;;10.68;4.63;;;;;;;9.29;100.00;100828.81;5047792;28;20127;-76
2022/11/02 03:31:37;;;;;;;12.10;4.80;;;;;;;9.29;100.00;100836.75;5047483;28;20041;-76
2022/11/02 03:34:14;;;;;;;9.77;4.25;;;;;;;9.28;100.00;100829.75;5033833;28;20056;-75
2022/11/02 03:37:10;;;;;;;12.82;4.57;;;;;;;9.28;100.00;100828.91;5034956;28;20045;-74
2022/11/02 03:39:45;;;;;;;12.45;4.07;;;;;;;9.12;100.00;100812.72;5049698;28;20071;-76
2022/11/02 03:42:17;;;;;;;14.57;4.93;;;;;;;9.20;100.00;100823.84;5045618;28;20041;-74
2022/11/02 03:44:49;;;;;;;12.00;4.40;;;;;;;9.19;100.00;100835.34;5036490;28;20049;-75
2022/11/02 03:47:19;;;;;;;11.80;4.18;;;;;;;9.14;100.00;100834.63;5047826;28;20163;-75
2022/11/02 03:49:49;;;;;;;12.63;4.30;;;;;;;9.13;100.00;100851.38;5051629;28;20501;-74
2022/11/02 03:52:22;;;;;;;11.90;3.97;;;;;;;9.10;100.00;100843.59;5052926;28;20044;-71
2022/11/02 03:55:09;;;;;;;12.68;4.10;;;;;;;9.08;100.00;100856.84;5040460;28;20055;-72
2022/11/02 03:57:42;;;;;;;10.32;4.80;;;;;;;9.09;100.00;100844.50;5045740;28;20719;-72
2022/11/02 04:00:12;;;;;;;14.77;4.53;;;;;;;9.12;100.00;100844.41;5043065;28;20048;-73
2022/11/02 04:02:41;;;;;;;11.10;4.47;;;;;;;9.19;100.00;100858.25;5040620;28;20091;-72
2022/11/02 04:05:08;;;;;;;13.10;5.05;;;;;;;9.23;100.00;100863.41;5035086;28;20045;-76
2022/11/02 04:10:25;;;;;;;12.32;4.28;;;;;;;9.28;100.00;100856.19;5042561;28;20045;-75
2022/11/02 04:15:37;;;;;;;12.88;4.68;;;;;;;9.17;100.00;100847.75;5041435;28;20100;-72
2022/11/02 04:20:51;;;;;;;10.02;4.28;;;;;;;9.37;100.00;100879.66;5054501;28;20037;-71
2022/11/02 04:26:04;;;;;;;11.85;4.63;;;;;;;9.46;100.00;100881.09;5044356;28;20052;-74
2022/11/02 04:28:30;;;;;;;10.75;4.25;;;;;;;9.50;100.00;100880.06;5054526;28;20063;-75
2022/11/02 04:31:01;;;;;;;11.80;4.90;;;;;;;9.54;100.00;100880.84;5047778;28;20135;-75
2022/11/02 04:33:33;;;;;;;14.23;4.05;;;;;;;9.58;100.00;100880.69;5048553;28;20048;-75
2022/11/02 04:36:06;;;;;;;14.40;4.47;;;;;;;9.70;100.00;100867.03;5045794;28;20087;-71
2022/11/02 04:38:42;;;;;;;9.80;3.95;;;;;;;9.65;100.00;100855.75;5052793;28;20069;-71
2022/11/02 04:43:58;;;;;;;10.60;4.25;;;;;;;9.76;100.00;100873.84;5042871;28;20048;-75
2022/11/02 04:46:27;;;;;;;14.18;4.68;;;;;;;9.74;100.00;100873.94;5051766;28;20143;-75
2022/11/02 04:48:54;;;;;;;13.30;3.95;;;;;;;9.65;100.00;100882.19;5050937;28;20574;-70
2022/11/02 04:51:22;;;;;;;12.05;4.35;;;;;;;9.61;100.00;100879.69;5052938;28;20516;-75
2022/11/02 04:53:50;;;;;;;14.43;4.10;;;;;;;9.57;100.00;100878.97;5044509;28;20045;-73
2022/11/02 04:56:17;;;;;;;9.90;4.07;;;;;;;9.51;100.00;100858.00;5048734;28;20048;-72
2022/11/02 04:58:49;;;;;;;8.55;3.67;;;;;;;9.65;100.00;100883.97;5051738;28;20132;-73
2022/11/02 05:01:16;;;;;;;8.60;3.90;;;;;;;9.63;100.00;100891.94;5052045;28;20800;-73
2022/11/02 05:03:46;;;;;;;10.07;4.25;;;;;;;9.62;100.00;100892.00;5053514;28;20047;-73
2022/11/02 05:06:13;;;;;;;13.57;4.32;;;;;;;9.57;100.00;100894.81;5050290;28;20120;-73
2022/11/02 05:08:40;;;;;;;11.93;4.65;;;;;;;9.56;100.00;100900.16;5054233;28;20092;-74
2022/11/02 05:11:07;;;;;;;16.67;3.90;;;;;;;9.46;100.00;100896.94;5056892;28;20049;-76
2022/11/02 05:13:35;;;;;;;12.45;4.18;;;;;;;9.47;100.00;100899.53;5049147;28;20370;-73
2022/11/02 05:16:01;;;;;;;10.98;3.65;;;;;;;9.38;100.00;100893.72;5044138;28;20404;-73
2022/11/02 05:18:28;;;;;;;10.68;4.32;;;;;;;9.42;100.00;100900.63;5047772;28;20053;-75
2022/11/02 05:20:57;;;;;;;9.45;4.10;;;;;;;9.40;100.00;100908.63;5054378;28;20055;-72
2022/11/02 05:23:25;;;;;;;9.85;3.75;;;;;;;9.36;100.00;100906.13;5049205;28;20111;-72
2022/11/02 05:25:56;;;;;;;8.98;4.25;;;;;;;9.32;100.00;100910.66;5040892;28;20053;-75
2022/11/02 05:28:24;;;;;;;13.52;4.25;;;;;;;9.27;100.00;100906.44;5057577;28;20421;-74
2022/11/02 05:30:52;;;;;;;9.73;4.18;;;;;;;9.28;100.00;100905.53;5056773;28;20043;-70
2022/11/02 05:33:19;;;;;;;12.77;4.03;;;;;;;9.27;100.00;100917.88;5051093;28;20045;-70
2022/11/02 05:35:45;;;;;;;12.18;4.43;;;;;;;9.24;100.00;100917.97;5045487;28;20052;-72
2022/11/02 05:38:12;;;;;;;13.57;4.10;;;;;;;9.22;100.00;100916.28;5052834;28;20049;-72
2022/11/02 05:40:39;;;;;;;12.57;4.18;;;;;;;9.21;100.00;100917.22;5050710;28;20056;-74
2022/11/02 05:43:07;;;;;;;15.73;4.10;;;;;;;9.22;100.00;100922.44;5039245;28;20080;-71
2022/11/02 05:45:35;;;;;;;10.65;4.07;;;;;;;9.21;100.00;100923.34;5040462;28;20068;-72
2022/11/02 05:48:05;;;;;;;11.73;4.00;;;;;;;9.20;100.00;100921.63;5039707;28;20197;-74
2022/11/02 05:50:32;;;;;;;15.75;4.63;;;;;;;9.18;100.00;100920.81;5047521;28;20131;-75
2022/11/02 05:52:59;;;;;;;10.75;4.00;;;;;;;9.21;100.00;100922.50;5053430;28;20506;-73
2022/11/02 05:55:25;;;;;;;13.38;4.10;;;;;;;9.21;100.00;100909.28;5036649;28;20057;-76
2022/11/02 05:57:54;;;;;;;9.40;3.50;;;;;;;9.31;100.00;100923.91;5043428;28;20071;-75
2022/11/02 06:00:21;;;;;;;12.48;4.00;;;;;;;9.27;100.00;100924.94;5040070;28;20049;-74
2022/11/02 06:02:48;;;;;;;11.95;4.10;;;;;;;9.21;100.00;100931.28;5055537;28;20120;-74
2022/11/02 06:05:15;;;;;;;16.02;4.55;;;;;;;9.14;100.00;100937.66;5037432;28;20469;-75
2022/11/02 06:07:42;;;;;;;15.50;4.15;;;;;;;9.11;100.00;100932.50;5053659;28;20057;-75
2022/11/02 06:10:08;;;;;;;6.10;3.67;;;;;;;9.09;100.00;100937.84;5047353;28;20049;-72
2022/11/02 06:12:35;;;;;;;14.98;4.03;;;;;;;9.15;100.00;100944.69;5047580;28;20060;-72
2022/11/02 06:15:02;;;;;;;10.90;4.03;;;;;;;9.22;100.00;100956.78;5037785;28;20041;-72
2022/11/02 06:17:35;;;;;;;11.25;4.40;;;;;;;9.05;100.00;100925.63;5050496;28;20059;-73
2022/11/02 06:20:02;;;;;;;10.05;3.70;;;;;;;9.16;100.00;100949.06;5044417;28;20045;-73
2022/11/02 06:22:29;;;;;;;13.23;3.53;;;;;;;9.16;100.00;100956.97;5050269;28;20083;-74
2022/11/02 06:24:55;;;;;;;12.35;3.88;;;;;;;9.16;100.00;100967.56;5035191;28;20178;-75
2022/11/02 06:27:22;;;;;;;11.02;3.47;;;;;;;9.22;100.00;100967.38;5047778;28;20044;-74
2022/11/02 06:29:48;;;;;;;9.63;3.65;;;;;;;9.32;100.00;100974.06;5047549;28;20127;-71
2022/11/02 06:32:15;;;;;;;10.27;3.67;;;;;;;9.28;100.00;100953.97;5045231;28;20548;-71
2022/11/02 06:34:43;;;;;;;11.48;3.40;;;;;;;9.36;100.00;100977.50;5046552;28;20057;-69
2022/11/02 06:37:09;;;;;;;13.02;3.78;;;;;;;9.37;100.00;100972.16;5059112;28;20125;-74
2022/11/02 06:39:36;;;;;;;16.88;5.05;;;;;;;9.39;100.00;100969.47;5055834;28;20132;-75
2022/11/02 06:42:07;;;;;;;13.77;3.60;;;;;;;9.43;100.00;100976.38;5033594;28;20060;-73
2022/11/02 06:44:34;;;;;;;13.18;3.47;;;;;;;9.38;100.00;100984.47;5040504;28;20413;-71
2022/11/02 06:47:01;;;;;;;10.73;4.57;;;;;;;9.36;100.00;100988.94;5042900;28;20045;-74
2022/11/02 06:49:27;;;;;;;11.27;4.20;;;;;;;9.42;100.00;100990.50;5048392;28;20051;-73
2022/11/02 06:51:54;;;;;;;10.15;3.28;;;;;;;9.45;100.00;100995.69;5050037;28;20049;-73
2022/11/02 06:54:22;;;;;;;9.10;3.55;;;;;;;9.55;100.00;100990.97;5038581;28;20156;-72
2022/11/02 06:56:49;;;;;;;11.90;3.78;;;;;;;9.59;100.00;100992.59;5043824;28;20083;-70
2022/11/02 06:59:16;;;;;;;12.55;3.92;;;;;;;9.55;100.00;100994.47;5055785;28;20067;-70
2022/11/02 07:01:43;;;;;;;12.10;3.70;;;;;;;9.49;100.00;101000.81;5034964;28;20056;-76
2022/11/02 07:04:10;;;;;;;8.80;3.35;;;;;;;9.41;100.00;101002.88;5039449;28;20081;-74
2022/11/02 07:06:37;;;;;;;9.35;3.92;;;;;;;9.49;100.00;101007.88;5042570;28;20041;-76
2022/11/02 07:09:03;;;;;;;12.90;3.92;;;;;;;9.46;100.00;101013.28;5044501;28;20402;-74
2022/11/02 07:11:30;;;;;;;13.98;4.57;;;;;;;9.49;100.00;101011.41;5050331;28;20059;-74
2022/11/02 07:13:56;;;;;;;11.15;3.75;;;;;;;9.55;100.00;101026.22;5042121;28;20084;-71
2022/11/02 07:16:24;;;;;;;14.95;4.15;;;;;;;9.63;100.00;101018.88;5035058;28;20596;-71
2022/11/02 07:18:50;;;;;;;11.10;3.88;;;;;;;9.71;100.00;101030.06;5038296;28;20132;-76
2022/11/02 07:21:17;;;;;;;11.52;4.10;;;;;;;9.71;100.00;101027.44;5042339;28;20084;-74
2022/11/02 07:23:43;;;;;;;12.25;4.38;;;;;;;9.67;100.00;101027.56;5037552;28;20045;-72
2022/11/02 07:26:10;;;;;;;14.65;4.40;;;;;;;9.78;100.00;101043.94;5027563;28;20049;-74
2022/11/02 07:28:37;;;;;;;11.63;3.80;;;;;;;9.86;100.00;101044.56;5034236;28;20047;-72
2022/11/02 07:31:04;;;;;;;15.57;4.53;;;;;;;9.85;100.00;101054.28;5038297;28;20146;-73
2022/11/02 07:33:31;;;;;;;14.15;4.68;;;;;;;9.86;100.00;101060.44;5041702;28;20178;-73
2022/11/02 07:35:57;;;;;;;11.00;4.43;;;;;;;9.81;100.00;101044.72;5025686;28;20692;-75
2022/11/02 07:38:24;;;;;;;19.25;4.45;;;;;;;9.95;100.00;101057.47;5037132;28;20045;-75
2022/11/02 07:40:50;;;;;;;9.32;4.18;;;;;;;9.99;100.00;101063.53;5045371;28;20049;-72
2022/11/02 07:43:17;;;;;;;16.40;4.40;;;;;;;10.02;100.00;101056.34;5031938;28;20059;-72
2022/11/02 07:45:43;;;;;;;11.68;4.50;;;;;;;10.18;100.00;101059.34;5035151;28;20052;-75
2022/11/02 07:48:10;;;;;;;18.23;5.40;;;;;;;10.44;100.00;101053.16;5038327;28;20040;-71
2022/11/02 07:50:37;;;;;;;12.20;4.45;;;;;;;10.55;100.00;101049.19;5037959;28;20051;-72
2022/11/02 07:53:03;;;;;;;16.08;4.38;;;;;;;10.68;100.00;101052.28;5048944;28;20045;-75
2022/11/02 07:55:31;;;;;;;15.80;4.35;;;;;;;10.81;100.00;101063.28;5037199;28;20052;-73
2022/11/02 07:58:08;;;;;;;14.73;5.28;;;;;;;10.72;100.00;101056.50;5046892;28;20100;-74
2022/11/02 08:00:36;;;;;;;13.55;3.92;;;;;;;10.64;100.00;101063.91;5045438;28;20041;-78
2022/11/02 08:03:05;;;;;;;12.18;3.90;;;;;;;10.62;100.00;101068.38;5041323;28;20123;-75
2022/11/02 08:05:34;;;;;;;13.82;4.95;;;;;;;10.57;100.00;101069.44;5039489;28;20232;-74
2022/11/02 08:08:09;;;;;;;14.85;4.25;;;;;;;10.56;100.00;101073.88;5044959;28;20099;-76
2022/11/02 08:10:36;;;;;;;13.65;4.05;;;;;;;10.47;100.00;101058.34;5040745;28;20041;-75
2022/11/02 08:13:08;;;;;;;13.17;4.33;;;;;;;10.61;100.00;101074.59;5041435;28;22208;-75
2022/11/02 08:15:35;;;;;;;14.38;4.32;;;;;;;10.61;100.00;101071.94;5041036;28;20519;-76
2022/11/02 08:18:02;;;;;;;10.93;4.00;;;;;;;10.69;100.00;101080.50;5040563;28;20041;-74
2022/11/02 08:20:31;;;;;;;17.08;4.75;;;;;;;10.80;100.00;101088.03;5056756;28;20044;-76
2022/11/02 08:22:57;;;;;;;14.68;4.68;;;;;;;10.85;100.00;101080.78;5051422;28;20059;-74
2022/11/02 08:25:24;;;;;;;12.68;3.83;;;;;;;10.97;100.00;101087.41;5040344;28;20037;-71
2022/11/02 08:27:55;;;;;;;15.27;4.03;;;;;;;11.06;100.00;101089.69;5048860;28;20128;-75
2022/11/02 08:30:22;;;;;;;15.35;4.10;;;;;;;11.17;100.00;101088.41;5055898;28;20128;-74
2022/11/02 08:32:49;;;;;;;14.68;3.80;;;;;;;11.19;100.00;101083.00;5049169;28;20036;-72
2022/11/02 08:35:22;;;;;;;14.88;4.25;;;;;;;11.43;100.00;101107.72;5047346;28;20041;-74
2022/11/02 08:37:56;;;;;;;16.58;4.32;;;;;;;11.63;100.00;101097.19;5052530;28;20545;-69
2022/11/02 08:40:23;;;;;;;18.83;3.75;;;;;;;11.79;100.00;101092.16;5044815;28;20044;-75
2022/11/02 08:42:56;;;;;;;12.93;3.88;;;;;;;11.91;100.00;101081.03;5065746;28;20488;-72
2022/11/02 08:45:23;;;;;;;12.60;3.85;;;;;;;11.93;100.00;101087.16;5037741;28;20209;-74
2022/11/02 08:47:50;;;;;;;11.02;3.13;;;;;;;11.86;100.00;101090.97;5059652;28;20083;-72
2022/11/02 08:50:17;;;;;;;18.52;3.90;;;;;;;11.84;100.00;101085.72;5047505;28;20610;-74
2022/11/02 08:52:43;;;;;;;10.85;3.10;;;;;;;11.85;100.00;101091.88;5054397;28;20800;-73
2022/11/02 08:55:10;;;;;;;13.07;3.97;;;;;;;11.92;100.00;101080.97;5043061;28;20049;-75
2022/11/02 08:58:06;;;;;;;13.40;3.05;;;;;;;12.12;100.00;101080.13;5049427;28;20041;-76
2022/11/02 09:00:34;;;;;;;8.80;2.90;;;;;;;12.30;100.00;101079.34;5039797;28;20048;-72
2022/11/02 09:03:05;;;;;;;12.30;3.60;;;;;;;12.53;100.00;101080.13;5056002;28;20052;-75
2022/11/02 09:05:40;;;;;;;8.80;2.65;;;;;;;12.65;100.00;101079.59;5039736;28;20055;-76
2022/11/02 09:08:10;;;;;;;12.30;3.00;;;;;;;12.81;100.00;101079.75;5050106;28;20100;-78
2022/11/02 09:10:37;;;;;;;12.48;3.30;;;;;;;12.95;100.00;101083.50;5053626;28;20047;-76
2022/11/02 09:13:06;;;;;;;12.45;3.08;;;;;;;12.91;100.00;101058.00;5033514;28;20530;-73
2022/11/02 09:15:35;;;;;;;13.00;2.88;;;;;;;13.16;99.49;101089.69;5036933;28;20041;-74
2022/11/02 09:18:03;;;;;;;9.73;2.90;;;;;;;13.27;97.57;101092.69;5050888;28;20484;-75
2022/11/02 09:20:31;;;;;;;9.63;2.80;;;;;;;13.40;98.31;101095.63;5050079;28;20052;-76
2022/11/02 09:22:58;;;;;;;10.10;2.35;;;;;;;13.51;96.08;101085.34;5056091;28;20048;-76
2022/11/02 09:25:25;;;;;;;11.32;2.10;;;;;;;13.58;94.10;101094.75;5036950;28;20046;-73
2022/11/02 09:27:53;;;;;;;11.85;2.33;;;;;;;13.58;92.49;101094.75;5054145;28;20481;-76
2022/11/02 09:30:22;;;;;;;11.13;2.33;;;;;;;13.52;91.92;101073.78;5055661;28;20036;-76
2022/11/02 09:32:57;;;;;;;10.90;1.83;;;;;;;13.70;91.52;101088.81;5055152;28;20049;-73
2022/11/02 09:35:26;;;;;;;6.38;1.77;;;;;;;13.84;89.64;101089.97;5037254;28;20196;-75
2022/11/02 09:37:52;;;;;;;12.10;2.22;;;;;;;13.94;87.18;101093.88;5048384;28;20045;-75
2022/11/02 09:40:21;;;;;;;13.30;2.17;;;;;;;13.83;86.29;101090.91;5045643;28;22452;-76
2022/11/02 09:42:57;;;;;;;14.88;2.22;;;;;;;13.84;85.79;101097.97;5047988;28;20040;-75
2022/11/02 09:45:24;;;;;;;11.35;2.25;;;;;;;13.78;86.79;101100.91;5037674;28;20127;-73
2022/11/02 09:47:58;;;;;;;9.82;2.08;;;;;;;13.92;86.57;101093.09;5032278;28;20068;-78
2022/11/02 09:50:51;;;;;;;13.15;2.22;;;;;;;14.34;83.35;101101.59;5039934;28;20350;-75
2022/11/02 09:53:47;;;;;;;12.63;2.80;;;;;;;14.57;79.29;101103.09;5048271;28;20438;-75
2022/11/02 09:56:18;;;;;;;10.30;2.10;;;;;;;14.31;79.48;101104.44;5038116;28;20041;-77
2022/11/02 09:58:52;;;;;;;13.60;2.47;;;;;;;14.17;81.11;101108.69;5048038;28;20111;-76
2022/11/02 10:01:24;;;;;;;11.82;1.80;;;;;;;14.20;80.92;101093.44;5047015;28;20141;-71
2022/11/02 10:04:06;;;;;;;11.90;1.92;;;;;;;14.23;75.38;101108.41;5058890;28;20101;-74
2022/11/02 10:06:37;;;;;;;12.45;1.77;;;;;;;14.16;75.72;101121.19;5041389;28;20053;-73
2022/11/02 10:09:16;;;;;;;6.47;1.77;;;;;;;14.19;74.13;101123.66;5053727;28;20050;-74
2022/11/02 10:11:57;;;;;;;7.33;1.37;;;;;;;14.36;72.84;101128.16;5054712;28;20115;-75
2022/11/02 10:14:30;;;;;;;8.20;1.50;;;;;;;14.37;73.07;101128.06;5055116;28;20491;-74
2022/11/02 10:17:17;;;;;;;11.90;1.83;;;;;;;14.28;74.59;101125.03;5038381;28;20048;-74
2022/11/02 10:19:50;;;;;;;13.77;2.28;;;;;;;14.45;76.57;101137.53;5057237;28;20432;-73
2022/11/02 10:22:18;;;;;;;6.40;1.60;;;;;;;14.39;75.99;101120.88;5045816;28;20044;-73
2022/11/02 10:24:46;;;;;;;11.45;1.80;;;;;;;14.41;75.34;101147.47;5043347;28;20398;-75
2022/11/02 10:27:26;;;;;;;13.18;1.90;;;;;;;14.25;72.86;101159.81;5041134;28;20531;-74
2022/11/02 10:30:17;;;;;;;9.70;1.67;;;;;;;14.16;69.85;101145.16;5049311;28;20722;-72
2022/11/02 10:32:45;;;;;;;9.50;2.08;;;;;;;13.97;70.66;101147.00;5055073;28;20055;-76
2022/11/02 10:35:21;;;;;;;7.30;1.73;;;;;;;13.84;71.85;101154.72;5046644;28;20455;-74
2022/11/02 10:38:40;;;;;;;14.55;2.10;;;;;;;13.86;70.89;101149.31;5041708;28;20044;-72
2022/11/02 10:41:16;;;;;;;8.40;1.95;;;;;;;13.98;70.18;101156.72;5049440;28;20069;-76
2022/11/02 10:44:00;;;;;;;8.82;1.77;;;;;;;14.11;70.03;101156.97;5052291;28;20055;-75
2022/11/02 10:46:45;;;;;;;9.02;1.50;;;;;;;14.10;71.07;101155.25;5032919;28;20132;-71
2022/11/02 10:49:14;;;;;;;8.30;1.80;;;;;;;14.19;71.66;101150.31;5047925;28;20507;-75
2022/11/02 10:51:41;;;;;;;11.48;1.88;;;;;;;14.32;70.50;101143.41;5044535;28;20052;-73
2022/11/02 10:54:13;;;;;;;7.50;1.67;;;;;;;14.45;70.07;101143.72;5055454;28;20064;-74
2022/11/02 10:56:48;;;;;;;14.00;1.63;;;;;;;14.41;69.29;101120.81;5033408;28;20115;-75
2022/11/02 10:59:22;;;;;;;9.18;1.77;;;;;;;14.69;68.53;101144.25;5049975;28;20041;-77
2022/11/02 11:01:55;;;;;;;11.13;2.72;;;;;;;14.79;67.35;101121.50;5053266;28;20079;-70
2022/11/02 11:04:26;;;;;;;11.15;1.98;;;;;;;14.83;66.02;101117.72;5047827;28;20041;-76
2022/11/02 11:06:55;;;;;;;8.88;1.52;;;;;;;14.99;65.91;101137.28;5032819;28;20552;-76
2022/11/02 11:09:25;;;;;;;10.75;1.70;;;;;;;15.02;64.58;101128.25;5040788;28;20045;-71
2022/11/02 11:12:00;;;;;;;9.35;1.80;;;;;;;14.97;64.43;101130.31;5049648;28;20048;-73
2022/11/02 11:14:29;;;;;;;9.70;2.25;;;;;;;14.82;65.12;101137.31;5065687;28;20048;-73
2022/11/02 11:17:22;;;;;;;10.15;1.75;;;;;;;14.69;67.15;101118.44;5035824;28;20049;-74
2022/11/02 11:20:35;;;;;;;14.65;2.28;;;;;;;14.97;67.90;101120.50;5047723;28;20513;-76
2022/11/02 11:23:14;;;;;;;7.32;2.05;;;;;;;15.25;65.44;101117.22;5038993;28;20500;-74
2022/11/02 11:25:41;;;;;;;8.68;1.75;;;;;;;15.45;63.83;101126.78;5045967;28;20468;-71
2022/11/02 11:28:28;;;;;;;8.65;1.77;;;;;;;15.58;62.77;101125.19;5028651;28;20168;-73
2022/11/02 11:31:04;;;;;;;10.23;1.65;;;;;;;15.59;62.72;101123.38;5040645;28;20143;-71
2022/11/02 11:33:32;;;;;;;8.82;2.33;;;;;;;15.40;63.55;101131.53;5045685;28;20062;-73
2022/11/02 11:35:59;;;;;;;11.10;1.83;;;;;;;15.50;62.19;101110.50;5051607;28;20489;-74
2022/11/02 11:38:26;;;;;;;9.40;1.50;;;;;;;15.41;60.36;101099.41;5037507;28;20120;-76
2022/11/02 11:40:57;;;;;;;7.95;1.50;;;;;;;15.52;59.93;101098.81;5047233;28;20167;-75
2022/11/02 11:43:27;;;;;;;9.38;1.60;;;;;;;15.77;60.10;101107.16;5042538;28;20128;-76
2022/11/02 11:46:05;;;;;;;11.10;1.83;;;;;;;15.55;59.07;101109.34;5041067;28;20045;-71
2022/11/02 11:48:37;;;;;;;8.77;1.60;;;;;;;15.49;60.54;101104.31;5037026;28;20045;-74